Airfield :
LOGIN :

Register | Disclaimer

   EN    FR    IT 

 










Legend :    VFR   Marginal VFR   IFR   Intensive IFR   Very Intensive IFR
Visi :
Ceiling :
>= 8 km
>= 3000ft
5 to 8 km
1000 to 3000 ft
1500m to 5 km
500 to 1000 ft
800 to 1500m
200 to 500 ft
< 800m
< 200 ft
Symbols :   Thunderstorms  Fog  Heavy snow  Heavy precipitations  Wind > 20 kt
SIGMETs :     Misc.  Thunderstorms  Icing  Turbulence  Mountain Waves  Volcanic Ashes






- Airport Elevation : 25 ft
- IATA code : QCY


EGXC - RAF Coningsby

CURRENT METAR :
  • 241024Z 25005KT 9999 FEW020 BKN025 07/06 Q1022 NOSIG RMK BLU BLU

EXPIRED METARs :
  • 240950Z 26004KT 9999 FEW018 BKN025 07/06 Q1022 NOSIG RMK BLU BLU
  • 240920Z 25004KT 9999 FEW017 BKN023 07/06 Q1022 BECMG BKN025 RMK WHT BECMG BLU
  • 240850Z 24004KT 9999 FEW017 BKN022 07/06 Q1022 NOSIG RMK WHT WHT
  • 240827Z 25005KT 9999 OVC020 06/06 Q1022 NOSIG RMK WHT WHT

TAF TAF EGXC
Valid from the 24 at 09:00 until the 25 at 03:00 UTC


240735Z 2409/2503 25005KT 9999 BKN020
BECMG 2409/2412 BKN025
PROB30
TEMPO 2412/2417 SCT012
BECMG 2416/2419 6000 HZ
PROB30
TEMPO 2419/2503 3000 BR
TEMPO 2420/2503 BKN022



MET'MAP, your aeronautical weather chart ! - Copyright ORBIFLY December 2007 - Disclaimer

ORBIFLY MET'MAP TEAM :

Programming & Development : Alexandra Zaïnal
Concept & original design : Baudouin d'Aumeries
Assistance for programming : Marc-Olivier Méhu
Technical & hardware support : Manuel Goepfert

Contact : metmap@orbifly.com




SOURCES & CREDITS :

   NOAA